Timaru, New Zealand
Current Conditions -  °F | °C
As of 8:30 AM on Friday 30 Jan 2015 (Local Time) from NZCH Reporting Station
Overcast Overcast  
Wind Chill: 64°   Ceiling: 2700
Heat Index: 64°   Visibility: 6mi
Dew Point: 59°   Wind: 5mph
Humidity: 83%   Direction: 360°N
Pressure: 30"   Gusts: NA
Location:  44.4°S, 171.25°E
Report Text: NZCH 292030Z AUTO 36004KT 320V050 9999 FEW011/// SCT020///OVC027/// 18/15 Q1016 TEMPO 6000 DZ BKN012
Loading
Personal Weather Stations






























Interactive Weather Map New forecast layout! Learn more

10-Day Weather Forecast

Advertisements
Track Severe Weather on mobile